sensor_id;sensor_type;location;lat;lon;timestamp;temperature;humidity
67147;DHT22;54061;52.036;5.558;2022-10-14T00:02:11;10.70;99.90
67147;DHT22;54061;52.036;5.558;2022-10-14T00:04:37;10.70;99.90
67147;DHT22;54061;52.036;5.558;2022-10-14T00:07:02;10.60;99.90
67147;DHT22;54061;52.036;5.558;2022-10-14T00:09:28;10.60;99.90
67147;DHT22;54061;52.036;5.558;2022-10-14T00:11:54;10.60;99.90
67147;DHT22;54061;52.036;5.558;2022-10-14T00:14:20;10.60;99.90
67147;DHT22;54061;52.036;5.558;2022-10-14T00:16:50;10.50;99.90
67147;DHT22;54061;52.036;5.558;2022-10-14T00:19:17;10.50;99.90
67147;DHT22;54061;52.036;5.558;2022-10-14T00:21:44;10.40;99.90
67147;DHT22;54061;52.036;5.558;2022-10-14T00:24:12;10.40;99.90
67147;DHT22;54061;52.036;5.558;2022-10-14T00:26:39;10.40;99.90
67147;DHT22;54061;52.036;5.558;2022-10-14T00:29:11;10.40;99.90
67147;DHT22;54061;52.036;5.558;2022-10-14T00:31:37;10.30;99.90
67147;DHT22;54061;52.036;5.558;2022-10-14T00:34:03;10.30;99.90
67147;DHT22;54061;52.036;5.558;2022-10-14T00:36:29;10.40;99.90
67147;DHT22;54061;52.036;5.558;2022-10-14T00:38:54;10.40;99.90
67147;DHT22;54061;52.036;5.558;2022-10-14T00:41:29;10.30;99.90
67147;DHT22;54061;52.036;5.558;2022-10-14T00:44:07;10.30;99.90
67147;DHT22;54061;52.036;5.558;2022-10-14T00:46:51;10.40;99.90
67147;DHT22;54061;52.036;5.558;2022-10-14T00:49:23;10.40;99.90
67147;DHT22;54061;52.036;5.558;2022-10-14T00:51:54;10.40;99.90
67147;DHT22;54061;52.036;5.558;2022-10-14T00:54:23;10.40;99.90
67147;DHT22;54061;52.036;5.558;2022-10-14T00:56:50;10.40;99.90
67147;DHT22;54061;52.036;5.558;2022-10-14T00:59:17;10.30;99.90
67147;DHT22;54061;52.036;5.558;2022-10-14T01:01:42;10.30;99.90
67147;DHT22;54061;52.036;5.558;2022-10-14T01:04:09;10.30;99.90
67147;DHT22;54061;52.036;5.558;2022-10-14T01:09:29;10.40;99.90
67147;DHT22;54061;52.036;5.558;2022-10-14T01:15:04;10.50;99.90
67147;DHT22;54061;52.036;5.558;2022-10-14T01:25:35;10.30;99.90
67147;DHT22;54061;52.036;5.558;2022-10-14T01:28:21;10.40;99.90
67147;DHT22;54061;52.036;5.558;2022-10-14T01:30:59;10.50;99.90
67147;DHT22;54061;52.036;5.558;2022-10-14T01:33:34;10.50;99.90
67147;DHT22;54061;52.036;5.558;2022-10-14T01:36:10;10.60;99.90
67147;DHT22;54061;52.036;5.558;2022-10-14T01:39:00;10.60;99.90
67147;DHT22;54061;52.036;5.558;2022-10-14T01:41:31;10.60;99.90
67147;DHT22;54061;52.036;5.558;2022-10-14T01:44:01;10.50;99.90
67147;DHT22;54061;52.036;5.558;2022-10-14T01:46:28;10.50;99.90
67147;DHT22;54061;52.036;5.558;2022-10-14T01:49:02;10.60;99.90
67147;DHT22;54061;52.036;5.558;2022-10-14T01:51:36;10.70;99.90
67147;DHT22;54061;52.036;5.558;2022-10-14T01:54:14;10.70;99.90
67147;DHT22;54061;52.036;5.558;2022-10-14T01:56:42;10.70;99.90
67147;DHT22;54061;52.036;5.558;2022-10-14T01:59:11;10.80;99.90
67147;DHT22;54061;52.036;5.558;2022-10-14T02:01:38;10.70;99.90
67147;DHT22;54061;52.036;5.558;2022-10-14T02:04:16;10.80;99.90
67147;DHT22;54061;52.036;5.558;2022-10-14T02:06:49;10.80;99.90
67147;DHT22;54061;52.036;5.558;2022-10-14T02:17:30;10.70;99.90
67147;DHT22;54061;52.036;5.558;2022-10-14T02:20:05;10.80;99.90
67147;DHT22;54061;52.036;5.558;2022-10-14T02:22:42;10.80;99.90
67147;DHT22;54061;52.036;5.558;2022-10-14T02:25:22;10.80;99.90
67147;DHT22;54061;52.036;5.558;2022-10-14T02:27:49;10.80;99.90
67147;DHT22;54061;52.036;5.558;2022-10-14T02:30:17;10.80;99.90
67147;DHT22;54061;52.036;5.558;2022-10-14T02:32:43;10.80;99.90
67147;DHT22;54061;52.036;5.558;2022-10-14T02:35:12;10.90;99.90
67147;DHT22;54061;52.036;5.558;2022-10-14T02:37:40;10.90;99.90
67147;DHT22;54061;52.036;5.558;2022-10-14T02:40:19;10.90;99.90
67147;DHT22;54061;52.036;5.558;2022-10-14T02:42:46;10.90;99.90
67147;DHT22;54061;52.036;5.558;2022-10-14T02:45:12;11.00;99.90
67147;DHT22;54061;52.036;5.558;2022-10-14T02:47:39;11.00;99.90
67147;DHT22;54061;52.036;5.558;2022-10-14T02:50:05;11.00;99.90
67147;DHT22;54061;52.036;5.558;2022-10-14T02:52:30;11.00;99.90
67147;DHT22;54061;52.036;5.558;2022-10-14T02:54:56;11.00;99.90
67147;DHT22;54061;52.036;5.558;2022-10-14T02:57:21;11.10;99.90
67147;DHT22;54061;52.036;5.558;2022-10-14T02:59:47;11.10;99.90
67147;DHT22;54061;52.036;5.558;2022-10-14T03:02:12;11.10;99.90
67147;DHT22;54061;52.036;5.558;2022-10-14T03:04:38;11.20;99.90
67147;DHT22;54061;52.036;5.558;2022-10-14T03:07:03;11.20;99.90
67147;DHT22;54061;52.036;5.558;2022-10-14T03:09:29;11.20;99.90
67147;DHT22;54061;52.036;5.558;2022-10-14T03:11:54;11.30;99.90
67147;DHT22;54061;52.036;5.558;2022-10-14T03:14:20;11.40;99.90
67147;DHT22;54061;52.036;5.558;2022-10-14T03:16:46;11.40;99.90
67147;DHT22;54061;52.036;5.558;2022-10-14T03:19:11;11.40;99.90
67147;DHT22;54061;52.036;5.558;2022-10-14T03:21:37;11.40;99.90
67147;DHT22;54061;52.036;5.558;2022-10-14T03:24:02;11.30;99.90
67147;DHT22;54061;52.036;5.558;2022-10-14T03:26:28;11.30;99.90
67147;DHT22;54061;52.036;5.558;2022-10-14T03:28:53;11.30;99.90
67147;DHT22;54061;52.036;5.558;2022-10-14T03:31:19;11.40;99.90
67147;DHT22;54061;52.036;5.558;2022-10-14T03:33:44;11.40;99.90
67147;DHT22;54061;52.036;5.558;2022-10-14T03:36:10;11.40;99.90
67147;DHT22;54061;52.036;5.558;2022-10-14T03:38:36;11.40;99.90
67147;DHT22;54061;52.036;5.558;2022-10-14T03:41:02;11.30;99.90
67147;DHT22;54061;52.036;5.558;2022-10-14T03:43:28;11.30;99.90
67147;DHT22;54061;52.036;5.558;2022-10-14T03:45:54;11.30;99.90
67147;DHT22;54061;52.036;5.558;2022-10-14T03:48:19;11.30;99.90
67147;DHT22;54061;52.036;5.558;2022-10-14T03:50:48;11.30;99.90
67147;DHT22;54061;52.036;5.558;2022-10-14T03:53:13;11.30;99.90
67147;DHT22;54061;52.036;5.558;2022-10-14T03:55:39;11.30;99.90
67147;DHT22;54061;52.036;5.558;2022-10-14T03:58:05;11.30;99.90
67147;DHT22;54061;52.036;5.558;2022-10-14T04:00:31;11.40;99.90
67147;DHT22;54061;52.036;5.558;2022-10-14T04:02:56;11.40;99.90
67147;DHT22;54061;52.036;5.558;2022-10-14T04:05:22;11.40;99.90
67147;DHT22;54061;52.036;5.558;2022-10-14T04:07:48;11.40;99.90
67147;DHT22;54061;52.036;5.558;2022-10-14T04:10:13;11.40;99.90
67147;DHT22;54061;52.036;5.558;2022-10-14T04:12:39;11.30;99.90
67147;DHT22;54061;52.036;5.558;2022-10-14T04:15:06;11.40;99.90
67147;DHT22;54061;52.036;5.558;2022-10-14T04:17:32;11.30;99.90
67147;DHT22;54061;52.036;5.558;2022-10-14T04:19:58;11.40;99.90
67147;DHT22;54061;52.036;5.558;2022-10-14T04:22:23;11.40;99.90
67147;DHT22;54061;52.036;5.558;2022-10-14T04:24:49;11.40;99.90
67147;DHT22;54061;52.036;5.558;2022-10-14T04:27:16;11.40;99.90
67147;DHT22;54061;52.036;5.558;2022-10-14T04:29:41;11.40;99.90
67147;DHT22;54061;52.036;5.558;2022-10-14T04:32:07;11.40;99.90
67147;DHT22;54061;52.036;5.558;2022-10-14T04:34:33;11.40;99.90
67147;DHT22;54061;52.036;5.558;2022-10-14T04:36:58;11.40;99.90
67147;DHT22;54061;52.036;5.558;2022-10-14T04:39:24;11.40;99.90
67147;DHT22;54061;52.036;5.558;2022-10-14T04:41:49;11.40;99.90
67147;DHT22;54061;52.036;5.558;2022-10-14T04:44:15;11.40;99.90
67147;DHT22;54061;52.036;5.558;2022-10-14T04:46:40;11.50;99.90
67147;DHT22;54061;52.036;5.558;2022-10-14T04:49:09;11.50;99.90
67147;DHT22;54061;52.036;5.558;2022-10-14T04:51:34;11.50;99.90
67147;DHT22;54061;52.036;5.558;2022-10-14T04:54:00;11.60;99.90
67147;DHT22;54061;52.036;5.558;2022-10-14T04:56:25;11.60;99.90
67147;DHT22;54061;52.036;5.558;2022-10-14T04:58:51;11.60;99.90
67147;DHT22;54061;52.036;5.558;2022-10-14T05:01:16;11.60;99.90
67147;DHT22;54061;52.036;5.558;2022-10-14T05:03:43;11.60;99.90
67147;DHT22;54061;52.036;5.558;2022-10-14T05:06:08;11.60;99.90
67147;DHT22;54061;52.036;5.558;2022-10-14T05:08:35;11.60;99.90
67147;DHT22;54061;52.036;5.558;2022-10-14T05:11:01;11.60;99.90
67147;DHT22;54061;52.036;5.558;2022-10-14T05:13:28;11.60;99.90
67147;DHT22;54061;52.036;5.558;2022-10-14T05:15:53;11.60;99.90
67147;DHT22;54061;52.036;5.558;2022-10-14T05:18:19;11.60;99.90
67147;DHT22;54061;52.036;5.558;2022-10-14T05:20:44;11.60;99.90
67147;DHT22;54061;52.036;5.558;2022-10-14T05:23:10;11.60;99.90
67147;DHT22;54061;52.036;5.558;2022-10-14T05:25:36;11.70;99.90
67147;DHT22;54061;52.036;5.558;2022-10-14T05:28:01;11.70;99.90
67147;DHT22;54061;52.036;5.558;2022-10-14T05:30:27;11.70;99.90
67147;DHT22;54061;52.036;5.558;2022-10-14T05:32:52;11.70;99.90
67147;DHT22;54061;52.036;5.558;2022-10-14T05:35:18;11.80;99.90
67147;DHT22;54061;52.036;5.558;2022-10-14T05:37:43;11.80;99.90
67147;DHT22;54061;52.036;5.558;2022-10-14T05:40:09;11.80;99.90
67147;DHT22;54061;52.036;5.558;2022-10-14T05:42:35;11.80;99.90
67147;DHT22;54061;52.036;5.558;2022-10-14T05:45:01;11.80;99.90
67147;DHT22;54061;52.036;5.558;2022-10-14T05:47:27;11.90;99.90
67147;DHT22;54061;52.036;5.558;2022-10-14T05:49:53;11.90;99.90
67147;DHT22;54061;52.036;5.558;2022-10-14T05:52:18;11.90;99.90
67147;DHT22;54061;52.036;5.558;2022-10-14T05:54:44;11.90;99.90
67147;DHT22;54061;52.036;5.558;2022-10-14T05:57:09;12.00;99.90
67147;DHT22;54061;52.036;5.558;2022-10-14T05:59:35;12.00;99.90
67147;DHT22;54061;52.036;5.558;2022-10-14T06:02:01;12.00;99.90
67147;DHT22;54061;52.036;5.558;2022-10-14T06:04:27;12.00;99.90
67147;DHT22;54061;52.036;5.558;2022-10-14T06:06:52;12.10;99.90
67147;DHT22;54061;52.036;5.558;2022-10-14T06:09:18;12.10;99.90
67147;DHT22;54061;52.036;5.558;2022-10-14T06:11:44;12.10;99.90
67147;DHT22;54061;52.036;5.558;2022-10-14T06:14:09;12.10;99.90
67147;DHT22;54061;52.036;5.558;2022-10-14T06:16:35;12.10;99.90
67147;DHT22;54061;52.036;5.558;2022-10-14T06:19:00;12.20;99.90
67147;DHT22;54061;52.036;5.558;2022-10-14T06:21:26;12.20;99.90
67147;DHT22;54061;52.036;5.558;2022-10-14T06:23:51;12.20;99.90
67147;DHT22;54061;52.036;5.558;2022-10-14T06:26:17;12.20;99.90
67147;DHT22;54061;52.036;5.558;2022-10-14T06:28:42;12.20;99.90
67147;DHT22;54061;52.036;5.558;2022-10-14T06:31:08;12.30;99.90
67147;DHT22;54061;52.036;5.558;2022-10-14T06:33:34;12.30;99.90
67147;DHT22;54061;52.036;5.558;2022-10-14T06:36:03;12.30;99.90
67147;DHT22;54061;52.036;5.558;2022-10-14T06:38:30;12.30;99.90
67147;DHT22;54061;52.036;5.558;2022-10-14T06:40:55;12.30;99.90
67147;DHT22;54061;52.036;5.558;2022-10-14T06:43:21;12.30;99.90
67147;DHT22;54061;52.036;5.558;2022-10-14T06:45:47;12.40;99.90
67147;DHT22;54061;52.036;5.558;2022-10-14T06:48:13;12.40;99.90
67147;DHT22;54061;52.036;5.558;2022-10-14T06:50:39;12.40;99.90
67147;DHT22;54061;52.036;5.558;2022-10-14T06:53:05;12.40;99.90
67147;DHT22;54061;52.036;5.558;2022-10-14T06:55:31;12.40;99.90
67147;DHT22;54061;52.036;5.558;2022-10-14T06:57:56;12.50;99.90
67147;DHT22;54061;52.036;5.558;2022-10-14T07:00:22;12.50;99.90
67147;DHT22;54061;52.036;5.558;2022-10-14T07:02:48;12.50;99.90
67147;DHT22;54061;52.036;5.558;2022-10-14T07:05:13;12.50;99.90
67147;DHT22;54061;52.036;5.558;2022-10-14T07:07:39;12.50;99.90
67147;DHT22;54061;52.036;5.558;2022-10-14T07:10:05;12.60;99.90
67147;DHT22;54061;52.036;5.558;2022-10-14T07:12:30;12.60;99.90
67147;DHT22;54061;52.036;5.558;2022-10-14T07:14:56;12.60;99.90
67147;DHT22;54061;52.036;5.558;2022-10-14T07:17:21;12.60;99.90
67147;DHT22;54061;52.036;5.558;2022-10-14T07:19:47;12.70;99.90
67147;DHT22;54061;52.036;5.558;2022-10-14T07:22:12;12.70;99.90
67147;DHT22;54061;52.036;5.558;2022-10-14T07:24:38;12.80;99.90
67147;DHT22;54061;52.036;5.558;2022-10-14T07:27:04;12.80;99.90
67147;DHT22;54061;52.036;5.558;2022-10-14T07:29:32;12.80;99.90
67147;DHT22;54061;52.036;5.558;2022-10-14T07:31:58;12.90;99.90
67147;DHT22;54061;52.036;5.558;2022-10-14T07:34:23;12.90;99.90
67147;DHT22;54061;52.036;5.558;2022-10-14T07:36:49;13.00;99.90
67147;DHT22;54061;52.036;5.558;2022-10-14T07:39:14;13.00;99.90
67147;DHT22;54061;52.036;5.558;2022-10-14T07:41:40;13.00;99.90
67147;DHT22;54061;52.036;5.558;2022-10-14T07:44:06;13.10;99.90
67147;DHT22;54061;52.036;5.558;2022-10-14T07:46:38;13.10;99.90
67147;DHT22;54061;52.036;5.558;2022-10-14T07:49:16;13.10;99.90
67147;DHT22;54061;52.036;5.558;2022-10-14T07:51:43;13.10;99.90
67147;DHT22;54061;52.036;5.558;2022-10-14T07:54:13;13.10;99.90
67147;DHT22;54061;52.036;5.558;2022-10-14T07:56:42;13.20;99.90
67147;DHT22;54061;52.036;5.558;2022-10-14T07:59:09;13.20;99.90
67147;DHT22;54061;52.036;5.558;2022-10-14T08:01:34;13.20;99.90
67147;DHT22;54061;52.036;5.558;2022-10-14T08:04:00;13.20;99.90
67147;DHT22;54061;52.036;5.558;2022-10-14T08:06:26;13.30;99.90
67147;DHT22;54061;52.036;5.558;2022-10-14T08:08:51;13.30;99.90
67147;DHT22;54061;52.036;5.558;2022-10-14T08:11:21;13.30;99.90
67147;DHT22;54061;52.036;5.558;2022-10-14T08:13:47;13.30;99.90
67147;DHT22;54061;52.036;5.558;2022-10-14T08:16:16;13.30;99.90
67147;DHT22;54061;52.036;5.558;2022-10-14T08:18:42;13.40;99.90
67147;DHT22;54061;52.036;5.558;2022-10-14T08:21:08;13.40;99.90
67147;DHT22;54061;52.036;5.558;2022-10-14T08:23:33;13.40;99.90
67147;DHT22;54061;52.036;5.558;2022-10-14T08:25:59;13.40;99.90
67147;DHT22;54061;52.036;5.558;2022-10-14T08:28:24;13.50;99.90
67147;DHT22;54061;52.036;5.558;2022-10-14T08:30:50;13.40;99.90
67147;DHT22;54061;52.036;5.558;2022-10-14T08:33:17;13.50;99.90
67147;DHT22;54061;52.036;5.558;2022-10-14T08:35:42;13.50;99.90
67147;DHT22;54061;52.036;5.558;2022-10-14T08:38:08;13.50;99.90
67147;DHT22;54061;52.036;5.558;2022-10-14T08:43:29;13.60;99.90
67147;DHT22;54061;52.036;5.558;2022-10-14T08:46:01;13.60;99.90
67147;DHT22;54061;52.036;5.558;2022-10-14T08:48:30;13.60;99.90
67147;DHT22;54061;52.036;5.558;2022-10-14T08:51:08;13.60;99.90
67147;DHT22;54061;52.036;5.558;2022-10-14T08:53:42;13.60;99.90
67147;DHT22;54061;52.036;5.558;2022-10-14T08:56:11;13.60;99.90
67147;DHT22;54061;52.036;5.558;2022-10-14T08:58:43;13.70;99.90
67147;DHT22;54061;52.036;5.558;2022-10-14T09:03:57;13.70;99.90
67147;DHT22;54061;52.036;5.558;2022-10-14T09:06:26;13.70;99.90
67147;DHT22;54061;52.036;5.558;2022-10-14T09:08:55;13.70;99.90
67147;DHT22;54061;52.036;5.558;2022-10-14T09:11:22;13.80;99.90
67147;DHT22;54061;52.036;5.558;2022-10-14T09:13:55;13.80;99.90
67147;DHT22;54061;52.036;5.558;2022-10-14T09:16:23;13.80;99.90
67147;DHT22;54061;52.036;5.558;2022-10-14T09:18:56;13.80;99.90
67147;DHT22;54061;52.036;5.558;2022-10-14T09:21:36;13.90;99.90
67147;DHT22;54061;52.036;5.558;2022-10-14T09:26:40;13.90;99.90
67147;DHT22;54061;52.036;5.558;2022-10-14T09:32:38;13.90;99.90
67147;DHT22;54061;52.036;5.558;2022-10-14T09:34:50;13.90;99.90
67147;DHT22;54061;52.036;5.558;2022-10-14T09:37:26;13.90;99.90
67147;DHT22;54061;52.036;5.558;2022-10-14T09:39:55;14.00;99.90
67147;DHT22;54061;52.036;5.558;2022-10-14T09:45:08;14.00;99.90
67147;DHT22;54061;52.036;5.558;2022-10-14T09:47:43;14.00;99.90
67147;DHT22;54061;52.036;5.558;2022-10-14T09:50:24;14.00;99.90
67147;DHT22;54061;52.036;5.558;2022-10-14T09:52:53;14.10;99.90
67147;DHT22;54061;52.036;5.558;2022-10-14T09:55:20;14.10;99.90
67147;DHT22;54061;52.036;5.558;2022-10-14T09:57:56;14.10;99.90
67147;DHT22;54061;52.036;5.558;2022-10-14T10:00:26;14.10;99.90
67147;DHT22;54061;52.036;5.558;2022-10-14T10:02:52;14.10;99.90
67147;DHT22;54061;52.036;5.558;2022-10-14T10:05:29;14.10;99.90
67147;DHT22;54061;52.036;5.558;2022-10-14T10:08:00;14.10;99.90
67147;DHT22;54061;52.036;5.558;2022-10-14T10:10:26;14.10;99.90
67147;DHT22;54061;52.036;5.558;2022-10-14T10:12:55;14.10;99.90
67147;DHT22;54061;52.036;5.558;2022-10-14T10:15:21;14.20;99.90
67147;DHT22;54061;52.036;5.558;2022-10-14T10:17:47;14.20;99.90
67147;DHT22;54061;52.036;5.558;2022-10-14T10:22:40;14.20;99.90
67147;DHT22;54061;52.036;5.558;2022-10-14T10:27:40;14.30;99.90
67147;DHT22;54061;52.036;5.558;2022-10-14T10:32:49;14.30;99.90
67147;DHT22;54061;52.036;5.558;2022-10-14T10:38:24;14.40;99.90
67147;DHT22;54061;52.036;5.558;2022-10-14T10:46:48;14.40;99.90
67147;DHT22;54061;52.036;5.558;2022-10-14T10:52:27;14.40;99.90
67147;DHT22;54061;52.036;5.558;2022-10-14T10:58:10;14.50;99.90
67147;DHT22;54061;52.036;5.558;2022-10-14T11:03:55;14.50;99.90
67147;DHT22;54061;52.036;5.558;2022-10-14T11:06:32;14.40;99.90
67147;DHT22;54061;52.036;5.558;2022-10-14T11:09:31;14.50;99.90
67147;DHT22;54061;52.036;5.558;2022-10-14T11:15:21;14.50;99.90
67147;DHT22;54061;52.036;5.558;2022-10-14T11:17:53;14.50;99.90
67147;DHT22;54061;52.036;5.558;2022-10-14T11:20:24;14.60;99.90
67147;DHT22;54061;52.036;5.558;2022-10-14T11:29:32;14.60;99.90
67147;DHT22;54061;52.036;5.558;2022-10-14T11:31:55;14.70;99.90
67147;DHT22;54061;52.036;5.558;2022-10-14T11:37:15;14.70;99.90
67147;DHT22;54061;52.036;5.558;2022-10-14T11:40:13;14.80;99.90
67147;DHT22;54061;52.036;5.558;2022-10-14T11:45:43;14.80;99.90
67147;DHT22;54061;52.036;5.558;2022-10-14T11:51:12;14.90;99.90
67147;DHT22;54061;52.036;5.558;2022-10-14T11:54:09;14.90;99.90
67147;DHT22;54061;52.036;5.558;2022-10-14T11:59:33;15.00;99.90
67147;DHT22;54061;52.036;5.558;2022-10-14T12:02:19;14.90;99.90
67147;DHT22;54061;52.036;5.558;2022-10-14T12:05:00;14.90;99.90
67147;DHT22;54061;52.036;5.558;2022-10-14T12:07:33;15.00;99.90
67147;DHT22;54061;52.036;5.558;2022-10-14T12:10:03;15.00;99.90
67147;DHT22;54061;52.036;5.558;2022-10-14T12:12:32;14.90;99.90
67147;DHT22;54061;52.036;5.558;2022-10-14T12:15:15;14.90;99.90
67147;DHT22;54061;52.036;5.558;2022-10-14T12:23:02;15.00;99.90
67147;DHT22;54061;52.036;5.558;2022-10-14T12:25:49;15.00;99.90
67147;DHT22;54061;52.036;5.558;2022-10-14T12:28:19;15.00;99.90
67147;DHT22;54061;52.036;5.558;2022-10-14T12:30:45;15.00;99.90
67147;DHT22;54061;52.036;5.558;2022-10-14T12:33:13;15.10;99.90
67147;DHT22;54061;52.036;5.558;2022-10-14T12:38:19;15.20;99.90
67147;DHT22;54061;52.036;5.558;2022-10-14T12:40:45;15.20;99.90
67147;DHT22;54061;52.036;5.558;2022-10-14T12:43:19;15.20;99.90
67147;DHT22;54061;52.036;5.558;2022-10-14T12:45:53;15.20;99.90
67147;DHT22;54061;52.036;5.558;2022-10-14T12:48:31;15.10;99.90
67147;DHT22;54061;52.036;5.558;2022-10-14T12:51:16;15.10;99.90
67147;DHT22;54061;52.036;5.558;2022-10-14T12:54:04;15.10;99.90
67147;DHT22;54061;52.036;5.558;2022-10-14T12:59:35;15.10;99.90
67147;DHT22;54061;52.036;5.558;2022-10-14T13:02:10;15.20;99.90
67147;DHT22;54061;52.036;5.558;2022-10-14T13:04:49;15.20;99.90
67147;DHT22;54061;52.036;5.558;2022-10-14T13:09:43;15.20;99.90
67147;DHT22;54061;52.036;5.558;2022-10-14T13:15:00;15.20;99.90
67147;DHT22;54061;52.036;5.558;2022-10-14T13:17:42;15.20;99.90
67147;DHT22;54061;52.036;5.558;2022-10-14T13:23:40;15.20;99.90
67147;DHT22;54061;52.036;5.558;2022-10-14T13:26:32;15.20;99.90
67147;DHT22;54061;52.036;5.558;2022-10-14T13:29:29;15.20;99.90
67147;DHT22;54061;52.036;5.558;2022-10-14T13:38:00;15.20;99.90
67147;DHT22;54061;52.036;5.558;2022-10-14T13:40:29;15.20;99.90
67147;DHT22;54061;52.036;5.558;2022-10-14T13:43:01;15.20;99.90
67147;DHT22;54061;52.036;5.558;2022-10-14T13:45:42;15.20;99.90
67147;DHT22;54061;52.036;5.558;2022-10-14T13:48:17;15.20;99.90
67147;DHT22;54061;52.036;5.558;2022-10-14T13:50:46;15.20;99.90
67147;DHT22;54061;52.036;5.558;2022-10-14T13:53:15;15.20;99.90
67147;DHT22;54061;52.036;5.558;2022-10-14T13:55:43;15.20;99.90
67147;DHT22;54061;52.036;5.558;2022-10-14T13:58:20;15.20;99.90
67147;DHT22;54061;52.036;5.558;2022-10-14T14:03:31;15.10;99.90
67147;DHT22;54061;52.036;5.558;2022-10-14T14:05:59;15.10;99.90
67147;DHT22;54061;52.036;5.558;2022-10-14T14:08:31;15.20;99.90
67147;DHT22;54061;52.036;5.558;2022-10-14T14:11:00;15.20;99.90
67147;DHT22;54061;52.036;5.558;2022-10-14T14:13:29;15.20;99.90
67147;DHT22;54061;52.036;5.558;2022-10-14T14:15:55;15.10;99.90
67147;DHT22;54061;52.036;5.558;2022-10-14T14:18:37;15.10;99.90
67147;DHT22;54061;52.036;5.558;2022-10-14T14:21:10;15.20;99.90
67147;DHT22;54061;52.036;5.558;2022-10-14T14:23:57;15.20;99.90
67147;DHT22;54061;52.036;5.558;2022-10-14T14:26:35;15.20;99.90
67147;DHT22;54061;52.036;5.558;2022-10-14T14:29:05;15.30;99.90
67147;DHT22;54061;52.036;5.558;2022-10-14T14:31:32;15.40;99.90
67147;DHT22;54061;52.036;5.558;2022-10-14T14:34:00;15.40;99.90
67147;DHT22;54061;52.036;5.558;2022-10-14T14:36:27;15.50;99.90
67147;DHT22;54061;52.036;5.558;2022-10-14T14:39:04;15.50;99.90
67147;DHT22;54061;52.036;5.558;2022-10-14T14:41:32;15.50;99.90
67147;DHT22;54061;52.036;5.558;2022-10-14T14:44:03;15.50;99.90
67147;DHT22;54061;52.036;5.558;2022-10-14T14:48:57;15.60;99.90
67147;DHT22;54061;52.036;5.558;2022-10-14T14:51:24;15.60;99.90
67147;DHT22;54061;52.036;5.558;2022-10-14T14:53:52;15.60;99.90
67147;DHT22;54061;52.036;5.558;2022-10-14T14:56:25;15.60;99.90
67147;DHT22;54061;52.036;5.558;2022-10-14T14:58:54;15.70;99.90
67147;DHT22;54061;52.036;5.558;2022-10-14T15:01:27;15.70;99.90
67147;DHT22;54061;52.036;5.558;2022-10-14T15:03:58;15.70;99.90
67147;DHT22;54061;52.036;5.558;2022-10-14T15:06:26;15.80;99.90
67147;DHT22;54061;52.036;5.558;2022-10-14T15:08:55;15.80;99.90
67147;DHT22;54061;52.036;5.558;2022-10-14T15:11:25;15.90;99.90
67147;DHT22;54061;52.036;5.558;2022-10-14T15:13:53;15.80;99.90
67147;DHT22;54061;52.036;5.558;2022-10-14T15:16:39;15.80;99.90
67147;DHT22;54061;52.036;5.558;2022-10-14T15:19:30;15.90;99.90
67147;DHT22;54061;52.036;5.558;2022-10-14T15:30:26;15.90;99.90
67147;DHT22;54061;52.036;5.558;2022-10-14T15:32:54;15.90;99.90
67147;DHT22;54061;52.036;5.558;2022-10-14T15:35:20;15.90;99.90
67147;DHT22;54061;52.036;5.558;2022-10-14T15:37:48;15.90;99.90
67147;DHT22;54061;52.036;5.558;2022-10-14T15:40:19;15.90;99.90
67147;DHT22;54061;52.036;5.558;2022-10-14T15:42:48;15.80;99.90
67147;DHT22;54061;52.036;5.558;2022-10-14T15:45:14;15.80;99.90
67147;DHT22;54061;52.036;5.558;2022-10-14T15:47:40;15.80;99.90
67147;DHT22;54061;52.036;5.558;2022-10-14T15:50:13;15.90;99.90
67147;DHT22;54061;52.036;5.558;2022-10-14T15:52:39;15.80;99.90
67147;DHT22;54061;52.036;5.558;2022-10-14T15:55:16;15.80;99.90
67147;DHT22;54061;52.036;5.558;2022-10-14T15:57:45;15.80;99.90
67147;DHT22;54061;52.036;5.558;2022-10-14T16:00:11;15.70;99.90
67147;DHT22;54061;52.036;5.558;2022-10-14T16:02:38;15.70;99.90
67147;DHT22;54061;52.036;5.558;2022-10-14T16:05:05;15.60;99.90
67147;DHT22;54061;52.036;5.558;2022-10-14T16:07:31;15.60;99.90
67147;DHT22;54061;52.036;5.558;2022-10-14T16:09:57;15.60;99.90
67147;DHT22;54061;52.036;5.558;2022-10-14T16:12:22;15.60;99.90
67147;DHT22;54061;52.036;5.558;2022-10-14T16:14:48;15.50;99.90
67147;DHT22;54061;52.036;5.558;2022-10-14T16:17:13;15.50;99.90
67147;DHT22;54061;52.036;5.558;2022-10-14T16:19:39;15.50;99.90
67147;DHT22;54061;52.036;5.558;2022-10-14T16:22:05;15.40;99.90
67147;DHT22;54061;52.036;5.558;2022-10-14T16:24:30;15.40;99.90
67147;DHT22;54061;52.036;5.558;2022-10-14T16:26:56;15.40;99.90
67147;DHT22;54061;52.036;5.558;2022-10-14T16:29:21;15.30;99.90
67147;DHT22;54061;52.036;5.558;2022-10-14T16:31:47;15.30;99.90
67147;DHT22;54061;52.036;5.558;2022-10-14T16:34:18;15.30;99.90
67147;DHT22;54061;52.036;5.558;2022-10-14T16:36:44;15.30;99.90
67147;DHT22;54061;52.036;5.558;2022-10-14T16:39:10;15.20;99.90
67147;DHT22;54061;52.036;5.558;2022-10-14T16:41:36;15.20;99.90
67147;DHT22;54061;52.036;5.558;2022-10-14T16:44:03;15.20;99.90
67147;DHT22;54061;52.036;5.558;2022-10-14T16:46:29;15.20;99.90
67147;DHT22;54061;52.036;5.558;2022-10-14T16:49:13;15.20;99.90
67147;DHT22;54061;52.036;5.558;2022-10-14T16:51:40;15.10;99.90
67147;DHT22;54061;52.036;5.558;2022-10-14T16:54:06;15.10;99.90
67147;DHT22;54061;52.036;5.558;2022-10-14T16:56:32;15.00;99.90
67147;DHT22;54061;52.036;5.558;2022-10-14T16:59:16;15.00;99.90
67147;DHT22;54061;52.036;5.558;2022-10-14T17:01:41;15.00;99.90
67147;DHT22;54061;52.036;5.558;2022-10-14T17:04:08;15.00;99.90
67147;DHT22;54061;52.036;5.558;2022-10-14T17:06:34;15.00;99.90
67147;DHT22;54061;52.036;5.558;2022-10-14T17:08:59;15.00;99.90
67147;DHT22;54061;52.036;5.558;2022-10-14T17:11:25;15.00;99.90
67147;DHT22;54061;52.036;5.558;2022-10-14T17:13:55;15.00;99.90
67147;DHT22;54061;52.036;5.558;2022-10-14T17:16:21;15.00;99.90
67147;DHT22;54061;52.036;5.558;2022-10-14T17:18:47;15.00;99.90
67147;DHT22;54061;52.036;5.558;2022-10-14T17:21:13;15.00;99.90
67147;DHT22;54061;52.036;5.558;2022-10-14T17:23:40;15.00;99.90
67147;DHT22;54061;52.036;5.558;2022-10-14T17:26:12;14.90;99.90
67147;DHT22;54061;52.036;5.558;2022-10-14T17:28:38;14.90;99.90
67147;DHT22;54061;52.036;5.558;2022-10-14T17:31:09;14.80;99.90
67147;DHT22;54061;52.036;5.558;2022-10-14T17:33:36;14.80;99.90
67147;DHT22;54061;52.036;5.558;2022-10-14T17:36:02;14.80;99.90
67147;DHT22;54061;52.036;5.558;2022-10-14T17:38:29;14.70;99.90
67147;DHT22;54061;52.036;5.558;2022-10-14T17:41:07;14.60;99.90
67147;DHT22;54061;52.036;5.558;2022-10-14T17:43:33;14.50;99.90
67147;DHT22;54061;52.036;5.558;2022-10-14T17:46:02;14.50;99.90